createdAt,value
2019-02-18T00:02:19.265Z,100024.33
2019-02-18T00:04:47.665Z,100035.97
2019-02-18T00:07:16.058Z,100034.26
2019-02-18T00:09:44.694Z,100025.28
2019-02-18T00:12:13.170Z,100017.36
2019-02-18T00:14:41.568Z,100020.03
2019-02-18T00:17:10.047Z,100019.19
2019-02-18T00:19:38.439Z,100027.20
2019-02-18T00:22:07.062Z,100022.78
2019-02-18T00:24:36.461Z,100029.08
2019-02-18T00:27:04.910Z,100028.23
2019-02-18T00:29:33.379Z,100017.64
2019-02-18T00:32:01.999Z,100022.11
2019-02-18T00:34:30.494Z,100024.77
2019-02-18T00:36:58.870Z,100017.72
2019-02-18T00:39:27.335Z,100023.06
2019-02-18T00:41:55.732Z,100022.19
2019-02-18T00:44:24.140Z,100013.33
2019-02-18T00:46:52.692Z,100013.42
2019-02-18T00:49:21.095Z,100011.67
2019-02-18T00:51:49.502Z,100007.20
2019-02-18T00:54:17.979Z,100005.48
2019-02-18T00:56:46.397Z,99999.27
2019-02-18T00:59:14.776Z,100000.23
2019-02-18T01:01:43.223Z,99990.50
2019-02-18T01:04:11.618Z,99986.88
2019-02-18T01:06:40.014Z,99982.49
2019-02-18T01:09:09.824Z,99991.42
2019-02-18T01:11:38.216Z,99994.09
2019-02-18T01:14:06.609Z,99977.23
2019-02-18T01:16:35.087Z,99975.52
2019-02-18T01:19:03.514Z,99979.98
2019-02-18T01:21:31.916Z,99963.97
2019-02-18T01:24:00.361Z,99968.43
2019-02-18T01:26:28.823Z,99963.09
2019-02-18T01:28:57.213Z,99964.05
2019-02-18T01:31:25.653Z,99965.84
2019-02-18T01:33:54.049Z,99957.95
2019-02-18T01:36:23.141Z,99953.45
2019-02-18T01:38:51.872Z,99949.82
2019-02-18T01:41:20.361Z,99952.61
2019-02-18T01:43:48.760Z,99954.41
2019-02-18T01:46:17.266Z,99950.02
2019-02-18T01:48:45.663Z,99946.56
2019-02-18T01:51:14.080Z,99948.27
2019-02-18T01:53:42.599Z,99945.72
2019-02-18T01:56:11.065Z,99955.53
2019-02-18T01:58:39.478Z,99951.91
2019-02-18T02:01:07.976Z,99952.86
2019-02-18T02:03:36.370Z,99950.19
2019-02-18T02:06:04.775Z,99947.52
2019-02-18T02:08:33.216Z,99944.06
2019-02-18T02:11:01.615Z,99938.72
2019-02-18T02:13:34.792Z,99935.20
2019-02-18T02:16:04.854Z,99937.96
2019-02-18T02:18:33.250Z,99937.00
2019-02-18T02:21:01.675Z,99937.96
2019-02-18T02:23:30.143Z,99932.63
2019-02-18T02:25:58.615Z,99933.58
2019-02-18T02:28:27.008Z,99935.38
2019-02-18T02:30:55.470Z,99944.25
2019-02-18T02:33:23.866Z,99931.83
2019-02-18T02:35:52.269Z,99931.95
2019-02-18T02:38:20.794Z,99920.39
2019-02-18T02:40:49.187Z,99919.52
2019-02-18T02:43:17.579Z,99917.81
2019-02-18T02:45:46.050Z,99924.95
2019-02-18T02:48:14.471Z,99922.27
2019-02-18T02:50:42.946Z,99922.27
2019-02-18T02:53:11.391Z,99928.56
2019-02-18T02:55:39.786Z,99931.23
2019-02-18T02:58:08.173Z,99928.66
2019-02-18T03:00:36.628Z,99923.31
2019-02-18T03:03:05.026Z,99921.52
2019-02-18T03:05:33.427Z,99919.88
2019-02-18T03:08:02.040Z,99924.35
2019-02-18T03:10:30.524Z,99921.69
2019-02-18T03:12:58.966Z,99917.30
2019-02-18T03:15:27.411Z,99920.92
2019-02-18T03:17:55.812Z,99920.92
2019-02-18T03:20:24.206Z,99924.52
2019-02-18T03:22:52.827Z,99917.47
2019-02-18T03:25:23.430Z,99923.67
2019-02-18T03:27:55.372Z,99921.84
2019-02-18T03:30:36.309Z,99920.13
2019-02-18T03:33:10.551Z,99923.76
2019-02-18T03:35:38.948Z,99922.88
2019-02-18T03:38:07.396Z,99922.88
2019-02-18T03:40:35.796Z,99918.50
2019-02-18T03:43:04.189Z,99917.63
2019-02-18T03:45:32.634Z,99922.97
2019-02-18T03:48:01.078Z,99917.71
2019-02-18T03:50:29.471Z,99926.59
2019-02-18T03:52:58.021Z,99924.00
2019-02-18T03:55:26.493Z,99928.39
2019-02-18T03:57:54.978Z,99924.00
2019-02-18T04:00:23.433Z,99926.75
2019-02-18T04:02:51.913Z,99927.63
2019-02-18T04:05:20.316Z,99924.14
2019-02-18T04:07:48.756Z,99913.41
2019-02-18T04:10:17.149Z,99915.29
2019-02-18T04:12:45.543Z,99913.46
2019-02-18T04:15:15.926Z,99905.57
2019-02-18T04:17:44.407Z,99908.23
2019-02-18T04:20:13.075Z,99910.91
2019-02-18T04:22:41.541Z,99904.61
2019-02-18T04:25:09.914Z,99912.70
2019-02-18T04:27:38.318Z,99914.50
2019-02-18T04:30:09.601Z,99913.66
2019-02-18T04:32:38.008Z,99914.69
2019-02-18T04:35:08.052Z,99916.41
2019-02-18T04:37:36.751Z,99911.07
2019-02-18T04:40:09.270Z,99906.58
2019-02-18T04:42:37.668Z,99909.36
2019-02-18T04:45:08.656Z,99909.36
2019-02-18T04:47:37.054Z,99897.89
2019-02-18T04:50:07.187Z,99901.44
2019-02-18T04:52:35.706Z,99907.61
2019-02-18T04:55:06.300Z,99907.69
2019-02-18T04:57:34.706Z,99909.52
2019-02-18T05:00:03.190Z,99907.69
2019-02-18T05:02:31.581Z,99913.03
2019-02-18T05:04:59.985Z,99908.64
2019-02-18T05:07:28.457Z,99908.64
2019-02-18T05:09:56.847Z,99907.80
2019-02-18T05:12:25.250Z,99912.27
2019-02-18T05:14:53.694Z,99906.06
2019-02-18T05:17:22.090Z,99903.39
2019-02-18T05:19:50.511Z,99900.80
2019-02-18T05:22:18.986Z,99903.47
2019-02-18T05:24:47.383Z,99899.01
2019-02-18T05:27:15.844Z,99902.63
2019-02-18T05:29:44.293Z,99904.34
2019-02-18T05:32:12.686Z,99893.75
2019-02-18T05:34:41.091Z,99894.63
2019-02-18T05:37:09.601Z,99900.05
2019-02-18T05:39:38.179Z,99902.63
2019-02-18T05:42:06.630Z,99905.38
2019-02-18T05:44:35.185Z,99907.97
2019-02-18T05:47:03.570Z,99899.17
2019-02-18T05:49:31.968Z,99907.97
2019-02-18T05:52:00.418Z,99915.18
2019-02-18T05:54:28.817Z,99917.84
2019-02-18T05:56:57.210Z,99925.86
2019-02-18T05:59:25.697Z,99921.47
2019-02-18T06:01:54.055Z,99925.02
2019-02-18T06:04:22.453Z,99938.27
2019-02-18T06:06:50.973Z,99936.53
2019-02-18T06:09:28.930Z,99939.98
2019-02-18T06:11:50.573Z,99943.61
2019-02-18T06:14:19.135Z,99942.98
2019-02-18T06:16:47.537Z,99940.50
2019-02-18T06:19:15.937Z,99942.98
2019-02-18T06:21:44.389Z,99949.19
2019-02-18T06:24:12.787Z,99952.73
2019-02-18T06:26:41.203Z,99953.65
2019-02-18T06:29:09.757Z,99944.61
2019-02-18T06:31:38.296Z,99947.20
2019-02-18T06:34:06.696Z,99946.28
2019-02-18T06:36:35.208Z,99951.50
2019-02-18T06:39:05.073Z,99951.42
2019-02-18T06:41:33.465Z,99952.30
2019-02-18T06:44:01.900Z,99954.88
2019-02-18T06:46:31.935Z,99955.64
2019-02-18T06:49:01.978Z,99957.39
2019-02-18T06:51:30.550Z,99955.56
2019-02-18T06:53:58.947Z,99961.69
2019-02-18T06:56:28.986Z,99964.28
2019-02-18T06:58:59.083Z,99954.37
2019-02-18T07:01:35.449Z,99956.91
2019-02-18T07:04:11.756Z,99966.55
2019-02-18T07:06:41.792Z,99963.80
2019-02-18T07:09:30.000Z,99967.22
2019-02-18T07:12:00.117Z,99967.94
2019-02-18T07:14:28.560Z,99969.56
2019-02-18T07:16:57.065Z,99975.66
2019-02-18T07:19:25.477Z,99972.91
2019-02-18T07:21:53.918Z,99977.22
2019-02-18T07:24:22.363Z,99976.30
2019-02-18T07:26:50.761Z,99974.38
2019-02-18T07:29:19.162Z,99958.28
2019-02-18T07:31:47.605Z,99964.30
2019-02-18T07:34:16.029Z,99953.37
2019-02-18T07:36:44.630Z,99957.67
2019-02-18T07:39:13.096Z,99951.20
2019-02-18T07:41:41.492Z,99961.72
2019-02-18T07:44:09.893Z,99958.88
2019-02-18T07:46:38.440Z,99959.47
2019-02-18T07:49:06.835Z,99953.95
2019-02-18T07:51:35.236Z,99957.38
2019-02-18T07:54:03.690Z,99948.24
2019-02-18T07:56:32.079Z,99947.98
2019-02-18T07:59:00.482Z,99946.94
2019-02-18T08:01:28.997Z,99945.81
2019-02-18T08:03:57.390Z,99943.58
2019-02-18T08:06:25.788Z,99940.73
2019-02-18T08:08:54.362Z,99939.42
2019-02-18T08:11:22.752Z,99945.34
2019-02-18T08:13:51.162Z,99945.92
2019-02-18T08:16:19.662Z,99946.41
2019-02-18T08:18:48.124Z,99950.53
2019-02-18T08:21:16.560Z,99950.17
2019-02-18T08:23:45.004Z,99951.70
2019-02-18T08:26:13.408Z,99950.44
2019-02-18T08:28:41.872Z,99958.20
2019-02-18T08:31:10.479Z,99952.48
2019-02-18T08:33:38.871Z,99952.09
2019-02-18T08:36:07.277Z,99948.18
2019-02-18T08:38:35.732Z,99942.59
2019-02-18T08:41:04.136Z,99953.85
2019-02-18T08:43:32.708Z,99948.23
2019-02-18T08:46:03.596Z,99945.24
2019-02-18T08:48:32.015Z,99945.05
2019-02-18T08:51:00.480Z,99948.30
2019-02-18T08:53:29.063Z,99942.56
2019-02-18T08:55:57.482Z,99944.09
2019-02-18T08:58:25.874Z,99949.03
2019-02-18T09:01:02.294Z,99950.55
2019-02-18T09:03:24.442Z,99948.44
2019-02-18T09:05:52.836Z,99949.98
2019-02-18T09:08:22.289Z,99944.41
2019-02-18T09:10:50.682Z,99939.73
2019-02-18T09:13:19.160Z,99954.32
2019-02-18T09:15:47.744Z,99949.67
2019-02-18T09:18:16.132Z,99942.09
2019-02-18T09:20:44.525Z,99954.87
2019-02-18T09:23:14.615Z,99948.89
2019-02-18T09:25:47.080Z,99942.17
2019-02-18T09:28:15.484Z,99949.59
2019-02-18T09:30:45.703Z,99947.25
2019-02-18T09:33:14.089Z,99948.36
2019-02-18T09:35:42.481Z,99946.01
2019-02-18T09:38:11.042Z,99962.27
2019-02-18T09:40:44.628Z,99954.55
2019-02-18T09:43:09.565Z,99953.03
2019-02-18T09:45:38.017Z,99957.64
2019-02-18T09:48:06.426Z,99960.67
2019-02-18T09:50:34.825Z,99951.20
2019-02-18T09:53:03.278Z,99948.83
2019-02-18T09:55:31.751Z,99948.41
2019-02-18T09:58:00.145Z,99944.46
2019-02-18T10:00:28.701Z,99935.33
2019-02-18T10:02:57.145Z,99943.47
2019-02-18T10:05:25.543Z,99942.80
2019-02-18T10:07:53.985Z,99944.07
2019-02-18T10:10:22.383Z,99936.52
2019-02-18T10:12:50.850Z,99937.80
2019-02-18T10:15:19.314Z,99927.45
2019-02-18T10:17:47.701Z,99922.47
2019-02-18T10:20:16.234Z,99922.00
2019-02-18T10:22:44.799Z,99923.29
2019-02-18T10:25:13.937Z,99920.05
2019-02-18T10:27:42.345Z,99912.38
2019-02-18T10:30:12.282Z,99906.39
2019-02-18T10:32:40.681Z,99906.66
2019-02-18T10:35:11.326Z,99902.42
2019-02-18T10:37:39.900Z,99903.67
2019-02-18T10:40:09.836Z,99901.24
2019-02-18T10:42:38.224Z,99897.86
2019-02-18T10:45:11.916Z,99892.73
2019-02-18T10:47:40.316Z,99897.49
2019-02-18T10:50:10.550Z,99889.78
2019-02-18T10:52:38.999Z,99878.31
2019-02-18T10:55:09.446Z,99883.94
2019-02-18T10:57:38.317Z,99877.05
2019-02-18T11:00:15.101Z,99877.29
2019-02-18T11:02:43.514Z,99869.47
2019-02-18T11:05:11.932Z,99876.83
2019-02-18T11:07:41.230Z,99870.80
2019-02-18T11:10:16.887Z,99865.63
2019-02-18T11:12:47.476Z,99865.73
2019-02-18T11:15:15.820Z,99863.00
2019-02-18T11:17:46.351Z,99856.58
2019-02-18T11:20:14.817Z,99856.15
2019-02-18T11:22:43.254Z,99854.72
2019-02-18T11:25:13.169Z,99853.11
2019-02-18T11:27:41.551Z,99852.55
2019-02-18T11:30:18.982Z,99861.45
2019-02-18T11:32:47.376Z,99846.47
2019-02-18T11:35:15.793Z,99848.20
2019-02-18T11:37:44.222Z,99843.02
2019-02-18T11:40:16.971Z,99840.49
2019-02-18T11:42:45.369Z,99836.22
2019-02-18T11:45:15.057Z,99836.40
2019-02-18T11:47:43.448Z,99842.08
2019-02-18T11:50:16.070Z,99839.50
2019-02-18T11:52:44.619Z,99842.63
2019-02-18T11:55:13.756Z,99832.25
2019-02-18T11:57:42.536Z,99832.80
2019-02-18T12:00:15.813Z,99824.80
2019-02-18T12:02:44.202Z,99823.95
2019-02-18T12:05:12.599Z,99825.94
2019-02-18T12:07:41.042Z,99822.34
2019-02-18T12:10:13.893Z,99814.22
2019-02-18T12:12:42.584Z,99812.38
2019-02-18T12:15:13.750Z,99814.04
2019-02-18T12:17:42.142Z,99803.41
2019-02-18T12:20:12.469Z,99801.38
2019-02-18T12:22:40.919Z,99798.02
2019-02-18T12:25:12.524Z,99790.36
2019-02-18T12:27:41.411Z,99788.83
2019-02-18T12:30:12.865Z,99795.34
2019-02-18T12:32:41.329Z,99782.58
2019-02-18T12:35:11.371Z,99777.22
2019-02-18T12:37:39.849Z,99774.27
2019-02-18T12:40:14.795Z,99768.91
2019-02-18T12:42:43.273Z,99766.10
2019-02-18T12:45:14.653Z,99769.42
2019-02-18T12:47:43.061Z,99766.23
2019-02-18T12:50:12.208Z,99751.86
2019-02-18T12:52:40.683Z,99757.37
2019-02-18T12:55:10.567Z,99760.44
2019-02-18T12:57:39.254Z,99754.73
2019-02-18T13:00:17.858Z,99759.20
2019-02-18T13:02:46.469Z,99754.83
2019-02-18T13:05:15.173Z,99753.16
2019-02-18T13:07:43.808Z,99751.81
2019-02-18T13:10:12.641Z,99744.72
2019-02-18T13:12:41.438Z,99745.38
2019-02-18T13:15:15.744Z,99744.89
2019-02-18T13:17:44.309Z,99745.40
2019-02-18T13:20:12.712Z,99749.64
2019-02-18T13:22:41.238Z,99747.46
2019-02-18T13:25:10.472Z,99751.02
2019-02-18T13:27:38.868Z,99741.33
2019-02-18T13:30:13.715Z,99742.20
2019-02-18T13:32:41.931Z,99744.22
2019-02-18T13:35:10.330Z,99738.60
2019-02-18T13:37:38.792Z,99740.63
2019-02-18T13:40:07.831Z,99742.63
2019-02-18T13:42:36.227Z,99741.06
2019-02-18T13:45:06.804Z,99739.63
2019-02-18T13:47:35.218Z,99735.38
2019-02-18T13:50:04.525Z,99738.73
2019-02-18T13:52:32.963Z,99729.88
2019-02-18T13:55:02.020Z,99730.16
2019-02-18T13:57:30.738Z,99722.28
2019-02-18T13:59:59.574Z,99721.33
2019-02-18T14:02:27.973Z,99721.73
2019-02-18T14:04:56.571Z,99723.72
2019-02-18T14:07:25.010Z,99716.30
2019-02-18T14:09:53.416Z,99718.37
2019-02-18T14:12:21.818Z,99721.17
2019-02-18T14:14:50.395Z,99724.55
2019-02-18T14:17:18.810Z,99719.39
2019-02-18T14:19:47.210Z,99710.89
2019-02-18T14:22:15.951Z,99713.98
2019-02-18T14:24:44.659Z,99713.89
2019-02-18T14:27:13.094Z,99719.55
2019-02-18T14:29:41.535Z,99711.48
2019-02-18T14:32:10.212Z,99703.15
2019-02-18T14:34:38.601Z,99705.77
2019-02-18T14:37:07.043Z,99704.55
2019-02-18T14:39:35.468Z,99706.65
2019-02-18T14:42:03.960Z,99699.84
2019-02-18T14:44:32.440Z,99705.28
2019-02-18T14:47:01.327Z,99704.41
2019-02-18T14:49:29.729Z,99703.58
2019-02-18T14:51:58.474Z,99699.83
2019-02-18T14:54:26.984Z,99701.52
2019-02-18T14:56:55.373Z,99693.41
2019-02-18T14:59:23.836Z,99694.98
2019-02-18T15:01:52.233Z,99690.70
2019-02-18T15:04:20.692Z,99690.67
2019-02-18T15:06:49.218Z,99679.82
2019-02-18T15:09:17.687Z,99682.48
2019-02-18T15:11:46.159Z,99684.02
2019-02-18T15:14:14.598Z,99672.35
2019-02-18T15:16:42.989Z,99683.92
2019-02-18T15:19:11.664Z,99683.05
2019-02-18T15:21:40.102Z,99675.91
2019-02-18T15:24:08.499Z,99674.95
2019-02-18T15:26:36.895Z,99680.28
2019-02-18T15:29:05.547Z,99673.25
2019-02-18T15:31:34.035Z,99664.27
2019-02-18T15:34:02.440Z,99665.19
2019-02-18T15:36:30.981Z,99654.34
2019-02-18T15:38:59.456Z,99659.63
2019-02-18T15:41:28.093Z,99659.41
2019-02-18T15:43:56.535Z,99661.02
2019-02-18T15:46:24.937Z,99659.11
2019-02-18T15:48:53.404Z,99655.21
2019-02-18T15:51:22.384Z,99653.17
2019-02-18T15:53:50.795Z,99658.20
2019-02-18T15:56:19.451Z,99648.15
2019-02-18T15:58:47.890Z,99657.72
2019-02-18T16:01:16.295Z,99651.96
2019-02-18T16:03:44.688Z,99661.41
2019-02-18T16:06:13.516Z,99657.50
2019-02-18T16:08:41.917Z,99649.20
2019-02-18T16:11:10.317Z,99655.92
2019-02-18T16:13:38.914Z,99654.69
2019-02-18T16:16:07.355Z,99648.95
2019-02-18T16:18:35.752Z,99663.01
2019-02-18T16:21:04.357Z,99657.20
2019-02-18T16:23:32.933Z,99659.52
2019-02-18T16:26:01.332Z,99662.59
2019-02-18T16:28:29.777Z,99655.00
2019-02-18T16:30:58.247Z,99656.33
2019-02-18T16:33:26.651Z,99654.25
2019-02-18T16:35:55.106Z,99659.13
2019-02-18T16:38:23.568Z,99659.59
2019-02-18T16:40:51.977Z,99661.78
2019-02-18T16:43:20.887Z,99660.53
2019-02-18T16:45:49.288Z,99665.40
2019-02-18T16:48:18.168Z,99668.39
2019-02-18T16:50:46.707Z,99662.41
2019-02-18T16:53:15.101Z,99664.59
2019-02-18T16:55:43.507Z,99663.11
2019-02-18T16:58:11.995Z,99660.77
2019-02-18T17:00:40.394Z,99658.41
2019-02-18T17:03:08.797Z,99664.03
2019-02-18T17:05:37.327Z,99665.96
2019-02-18T17:08:05.790Z,99659.11
2019-02-18T17:10:34.191Z,99663.00
2019-02-18T17:13:08.253Z,99658.72
2019-02-18T17:15:32.855Z,99656.37
2019-02-18T17:18:01.330Z,99655.64
2019-02-18T17:20:29.781Z,99654.88
2019-02-18T17:22:58.177Z,99659.63
2019-02-18T17:25:27.288Z,99653.61
2019-02-18T17:27:55.937Z,99653.86
2019-02-18T17:30:24.463Z,99646.91
2019-02-18T17:32:52.866Z,99645.42
2019-02-18T17:35:21.348Z,99641.98
2019-02-18T17:37:49.742Z,99644.01
2019-02-18T17:40:18.151Z,99637.16
2019-02-18T17:42:46.626Z,99638.24
2019-02-18T17:45:17.526Z,99633.94
2019-02-18T17:47:45.924Z,99638.56
2019-02-18T17:50:15.925Z,99637.08
2019-02-18T17:52:44.386Z,99635.37
2019-02-18T17:55:16.812Z,99633.78
2019-02-18T17:57:45.246Z,99632.28
2019-02-18T18:00:16.916Z,99627.97
2019-02-18T18:02:45.387Z,99628.33
2019-02-18T18:05:13.829Z,99624.05
2019-02-18T18:07:42.776Z,99626.94
2019-02-18T18:10:12.521Z,99626.94
2019-02-18T18:12:41.053Z,99624.48
2019-02-18T18:15:17.287Z,99624.58
2019-02-18T18:17:45.688Z,99620.30
2019-02-18T18:20:14.897Z,99618.81
2019-02-18T18:22:43.358Z,99618.08
2019-02-18T18:25:13.478Z,99618.19
2019-02-18T18:27:42.070Z,99613.91
2019-02-18T18:30:12.813Z,99616.70
2019-02-18T18:32:41.299Z,99616.70
2019-02-18T18:35:11.739Z,99616.91
2019-02-18T18:37:40.130Z,99612.63
2019-02-18T18:40:12.020Z,99612.84
2019-02-18T18:42:40.470Z,99616.48
2019-02-18T18:45:11.175Z,99620.14
2019-02-18T18:47:39.583Z,99618.40
2019-02-18T18:50:22.258Z,99607.90
2019-02-18T18:52:50.656Z,99607.13
2019-02-18T18:55:19.055Z,99603.83
2019-02-18T18:57:47.502Z,99606.61
2019-02-18T19:00:25.204Z,99608.52
2019-02-18T19:02:53.629Z,99611.30
2019-02-18T19:05:22.452Z,99614.12
2019-02-18T19:07:50.911Z,99614.33
2019-02-18T19:10:19.445Z,99608.09
2019-02-18T19:12:47.925Z,99609.17
2019-02-18T19:15:19.753Z,99613.77
2019-02-18T19:17:48.156Z,99618.28
2019-02-18T19:20:16.614Z,99612.27
2019-02-18T19:22:45.118Z,99614.94
2019-02-18T19:25:13.685Z,99612.50
2019-02-18T19:27:42.273Z,99617.09
2019-02-18T19:30:22.219Z,99608.33
2019-02-18T19:32:50.951Z,99606.48
2019-02-18T19:35:19.358Z,99611.94
2019-02-18T19:37:47.762Z,99610.23
2019-02-18T19:40:16.224Z,99604.98
2019-02-18T19:42:44.613Z,99614.75
2019-02-18T19:45:18.063Z,99603.38
2019-02-18T19:47:46.730Z,99602.55
2019-02-18T19:50:15.131Z,99607.03
2019-02-18T19:52:43.525Z,99598.23
2019-02-18T19:55:13.497Z,99601.05
2019-02-18T19:57:42.000Z,99601.05
2019-02-18T20:00:13.398Z,99595.80
2019-02-18T20:02:41.866Z,99594.05
2019-02-18T20:05:10.630Z,99595.80
2019-02-18T20:07:39.077Z,99600.17
2019-02-18T20:10:10.223Z,99599.20
2019-02-18T20:12:38.892Z,99601.05
2019-02-18T20:15:10.412Z,99601.88
2019-02-18T20:17:38.853Z,99601.88
2019-02-18T20:20:11.670Z,99594.72
2019-02-18T20:22:40.057Z,99599.20
2019-02-18T20:25:09.449Z,99596.53
2019-02-18T20:27:37.893Z,99601.88
2019-02-18T20:30:17.337Z,99597.50
2019-02-18T20:32:45.732Z,99597.50
2019-02-18T20:35:14.124Z,99601.88
2019-02-18T20:37:42.642Z,99594.92
2019-02-18T20:40:11.674Z,99589.67
2019-02-18T20:42:40.445Z,99592.45
2019-02-18T20:45:15.112Z,99596.09
2019-02-18T20:47:43.619Z,99595.36
2019-02-18T20:50:14.298Z,99590.11
2019-02-18T20:52:44.398Z,99594.59
2019-02-18T20:55:14.249Z,99588.38
2019-02-18T20:57:42.705Z,99585.06
2019-02-18T21:00:17.613Z,99578.84
2019-02-18T21:02:46.011Z,99581.66
2019-02-18T21:05:14.404Z,99581.75
2019-02-18T21:07:42.835Z,99585.37
2019-02-18T21:10:14.870Z,99586.23
2019-02-18T21:12:43.368Z,99578.31
2019-02-18T21:15:11.836Z,99575.73
2019-02-18T21:17:40.231Z,99576.70
2019-02-18T21:20:10.650Z,99577.67
2019-02-18T21:22:39.084Z,99575.00
2019-02-18T21:25:09.460Z,99573.39
2019-02-18T21:27:37.864Z,99571.56
2019-02-18T21:30:09.821Z,99571.66
2019-02-18T21:32:39.917Z,99572.63
2019-02-18T21:35:08.657Z,99567.28
2019-02-18T21:37:37.432Z,99564.61
2019-02-18T21:40:08.355Z,99563.77
2019-02-18T21:42:36.772Z,99563.83
2019-02-18T21:45:07.780Z,99570.98
2019-02-18T21:47:36.165Z,99565.64
2019-02-18T21:50:06.395Z,99556.02
2019-02-18T21:52:34.828Z,99559.55
2019-02-18T21:55:03.282Z,99555.14
2019-02-18T21:57:31.666Z,99556.02
2019-02-18T22:00:00.263Z,99559.66
2019-02-18T22:02:28.709Z,99558.89
2019-02-18T22:04:57.134Z,99560.73
2019-02-18T22:07:25.749Z,99566.17
2019-02-18T22:09:54.415Z,99563.50
2019-02-18T22:12:22.803Z,99558.25
2019-02-18T22:14:51.257Z,99555.58
2019-02-18T22:17:19.728Z,99551.30
2019-02-18T22:19:48.123Z,99555.68
2019-02-18T22:22:16.595Z,99561.13
2019-02-18T22:24:44.991Z,99545.18
2019-02-18T22:27:13.665Z,99554.08
2019-02-18T22:29:42.137Z,99551.50
2019-02-18T22:32:10.524Z,99549.80
2019-02-18T22:34:38.914Z,99550.73
2019-02-18T22:37:07.353Z,99551.70
2019-02-18T22:39:35.742Z,99548.16
2019-02-18T22:42:04.179Z,99551.70
2019-02-18T22:44:32.893Z,99550.83
2019-02-18T22:47:01.287Z,99547.42
2019-02-18T22:49:29.674Z,99549.22
2019-02-18T22:51:58.201Z,99547.52
2019-02-18T22:54:26.596Z,99545.71
2019-02-18T22:56:54.986Z,99549.32
2019-02-18T22:59:23.420Z,99543.14
2019-02-18T23:01:51.810Z,99542.27
2019-02-18T23:04:20.203Z,99548.69
2019-02-18T23:06:48.638Z,99544.20
2019-02-18T23:09:17.437Z,99542.47
2019-02-18T23:11:45.829Z,99544.30
2019-02-18T23:14:14.295Z,99550.63
2019-02-18T23:16:43.087Z,99539.05
2019-02-18T23:19:11.470Z,99538.19
2019-02-18T23:21:40.553Z,99533.71
2019-02-18T23:24:09.071Z,99536.38
2019-02-18T23:26:37.523Z,99541.83
2019-02-18T23:29:05.961Z,99540.12
2019-02-18T23:31:34.359Z,99533.81
2019-02-18T23:34:02.924Z,99523.21
2019-02-18T23:36:31.582Z,99533.91
2019-02-18T23:39:00.014Z,99531.33
2019-02-18T23:41:28.399Z,99528.66
2019-02-18T23:43:56.847Z,99520.64
2019-02-18T23:46:25.306Z,99522.48
2019-02-18T23:48:53.697Z,99518.94
2019-02-18T23:51:22.167Z,99525.25
2019-02-18T23:53:50.515Z,99519.91
2019-02-18T23:56:18.898Z,99518.06
2019-02-18T23:58:47.395Z,99517.23
